Valtellina — ICKF — position and weather

sailwx.info

Track history (hours):
 
Tides and Currents Weather Stations Pressure Air Temp Water Temp Dewpoint Dewpoint Depression Visibility Wind Speed Wind Dir Waves Ship Positions

Valtellina

Last reported at 2017-Jun-17 14:51 UTC. Time now 2017-Jun-22 18:40 UTC.
Position N 37°48' E 015°28'.

Length 184 m; draft 7.5 m.

Type: Ship. MMSI: 247243900.

Date/timePositionNaut miles runAvg speedWind from/ knotsBaromVisibWave heightAir tempDewpointWater temp
2017-Jun-17 14:51N 37°48' E 015°28'813.3
2017-Jun-17 14:13N 37°56' E 015°30'913.0
2017-Jun-17 13:31N 38°05' E 015°33'612.9
2017-Jun-17 13:00N 38°11' E 015°35'712.1
2017-Jun-17 12:25N 38°17' E 015°40'512.6
2017-Jun-17 12:00N 38°21' E 015°37'713.2
2017-Jun-17 11:30N 38°26' E 015°31'713.3
2017-Jun-17 11:00N 38°31' E 015°25'713.2
2017-Jun-17 10:29N 38°36' E 015°19'613.0
2017-Jun-17 10:00N 38°40' E 015°13'712.9
2017-Jun-17 09:29N 38°45' E 015°08'7912.8
2017-Jun-17 03:22N 39°44' E 013°60'512.9
2017-Jun-17 03:00N 39°47' E 013°56'612.9
2017-Jun-17 02:30N 39°52' E 013°50'612.7
2017-Jun-17 02:01N 39°57' E 013°44'612.6
2017-Jun-17 01:30N 40°01' E 013°38'612.5
2017-Jun-17 01:00N 40°06' E 013°33'612.5
2017-Jun-17 00:30N 40°10' E 013°27'612.7
2017-Jun-17 00:00N 40°15' E 013°22'612.8
2017-Jun-16 23:31N 40°20' E 013°16'612.8
2017-Jun-16 23:00N 40°25' E 013°11'612.7
2017-Jun-16 22:30N 40°30' E 013°05'1213.0
2017-Jun-16 21:36N 40°38' E 012°55'212.8
2017-Jun-16 21:28N 40°40' E 012°54'712.6
2017-Jun-16 20:57N 40°45' E 012°48'713.0
2017-Jun-16 20:25N 40°50' E 012°42'513.1
2017-Jun-16 20:00N 40°54' E 012°37'713.2
2017-Jun-16 19:30N 40°59' E 012°32'713.2
2017-Jun-16 19:00N 41°04' E 012°26'713.2
2017-Jun-16 18:30N 41°09' E 012°20'2713.1
2017-Jun-16 16:25N 41°30' E 011°57'513.0
2017-Jun-16 16:00N 41°34' E 011°52'1612.8
2017-Jun-16 14:44N 41°46' E 011°38'312.4
2017-Jun-16 14:28N 41°49' E 011°35'5 1.3
2017-Jun-16 11:01N 41°52' E 011°31'0 0.4
2017-Jun-16 11:00N 41°52' E 011°31'0 0.1
2017-Jun-16 07:13N 41°52' E 011°31'0 0.1
2017-Jun-16 06:36N 41°52' E 011°31'0 0.1
2017-Jun-16 06:30N 41°52' E 011°31'0 0.1
2017-Jun-16 05:51N 41°52' E 011°31'0 0.1
2017-Jun-16 05:22N 41°52' E 011°31'0 0.1
2017-Jun-16 04:54N 41°52' E 011°31'0 0.1
2017-Jun-16 04:27N 41°52' E 011°31'0 0.0
2017-Jun-16 03:58N 41°52' E 011°31'0 0.1
2017-Jun-16 03:25N 41°52' E 011°31'0 0.1
2017-Jun-16 03:01N 41°52' E 011°31'0 0.2
2017-Jun-16 02:28N 41°52' E 011°31'0 0.2
2017-Jun-16 01:56N 41°52' E 011°31'0 0.1
2017-Jun-16 01:28N 41°52' E 011°31'0 0.1
2017-Jun-16 01:00N 41°52' E 011°31'0 0.1
2017-Jun-16 00:25N 41°52' E 011°31'0 0.1
2017-Jun-16 00:01N 41°52' E 011°31'0 0.2
2017-Jun-15 23:29N 41°52' E 011°31'0 0.2
2017-Jun-15 23:00N 41°52' E 011°31'0 0.2
2017-Jun-15 22:28N 41°53' E 011°31'0 0.2
2017-Jun-15 21:58N 41°53' E 011°31'0 0.1
2017-Jun-15 21:30N 41°53' E 011°31'0 0.2
2017-Jun-15 20:58N 41°53' E 011°31'0 0.2
2017-Jun-15 20:31N 41°53' E 011°31'0 0.4
2017-Jun-15 19:59N 41°53' E 011°31'1 1.5
2017-Jun-15 19:30N 41°54' E 011°31'4 8.2
2017-Jun-15 19:00N 41°57' E 011°34'2 3.6
2017-Jun-15 18:28N 41°59' E 011°35'0 0.5
2017-Jun-15 17:57N 41°59' E 011°35'0 0.6
2017-Jun-15 17:21N 41°59' E 011°34'0 0.6
2017-Jun-15 16:58N 41°59' E 011°34'0 0.6
2017-Jun-15 16:28N 41°59' E 011°34'0 0.6
2017-Jun-15 15:57N 41°59' E 011°33'0 0.6
2017-Jun-15 15:27N 41°58' E 011°33'0 0.6
2017-Jun-15 15:00N 41°58' E 011°33'0 0.6
2017-Jun-15 14:25N 41°58' E 011°32'0 0.5
2017-Jun-15 13:30N 41°58' E 011°32'1 0.4
2017-Jun-15 12:20N 41°57' E 011°32'0 0.4
2017-Jun-15 11:55N 41°57' E 011°32'0 0.3
2017-Jun-15 11:31N 41°57' E 011°32'0 0.3
2017-Jun-15 10:58N 41°57' E 011°32'0 0.2
2017-Jun-15 10:24N 41°57' E 011°32'0 0.2
2017-Jun-15 10:00N 41°56' E 011°32'0 0.2
2017-Jun-15 09:22N 41°56' E 011°32'0 0.3
2017-Jun-15 08:59N 41°56' E 011°32'0 0.3
2017-Jun-15 08:28N 41°56' E 011°32'0 0.2
2017-Jun-15 08:00N 41°56' E 011°32'0 0.2
2017-Jun-15 07:20N 41°56' E 011°32'0 0.2
2017-Jun-15 06:59N 41°56' E 011°32'0 0.2
2017-Jun-15 06:28N 41°56' E 011°32'0 0.2
2017-Jun-15 06:01N 41°56' E 011°32'0 0.2
2017-Jun-15 05:29N 41°56' E 011°32'0 0.2
2017-Jun-15 05:01N 41°56' E 011°32'0 0.2
2017-Jun-15 04:29N 41°56' E 011°32'0 0.3
2017-Jun-15 03:58N 41°56' E 011°32'0 0.3
2017-Jun-15 03:29N 41°55' E 011°32'0 0.3
2017-Jun-15 02:56N 41°55' E 011°31'0 0.3
2017-Jun-15 02:30N 41°55' E 011°31'0 0.3
2017-Jun-15 02:00N 41°55' E 011°31'0 0.3
2017-Jun-15 01:28N 41°55' E 011°31'0 0.4
2017-Jun-15 01:00N 41°55' E 011°31'0 0.4
2017-Jun-15 00:30N 41°55' E 011°31'0 0.3
2017-Jun-15 00:00N 41°55' E 011°31'0 0.3
2017-Jun-14 23:30N 41°54' E 011°31'0 0.3
2017-Jun-14 23:00N 41°54' E 011°31'0 0.2
2017-Jun-14 22:30N 41°54' E 011°31'0 0.3
2017-Jun-14 22:00N 41°54' E 011°31'0 0.3
2017-Jun-14 21:31N 41°54' E 011°31'0 0.3
2017-Jun-14 21:00N 41°54' E 011°31'0 0.3
2017-Jun-14 20:30N 41°54' E 011°31'0 0.3
2017-Jun-14 20:01N 41°53' E 011°31'0 0.3
2017-Jun-14 19:30N 41°53' E 011°31'0 0.3
2017-Jun-14 19:00N 41°53' E 011°31'0 0.3
2017-Jun-14 18:30N 41°53' E 011°31'0 0.3
2017-Jun-14 18:00N 41°53' E 011°31'0 0.3
2017-Jun-14 17:30N 41°53' E 011°31'0 0.2
2017-Jun-14 17:00N 41°53' E 011°31'0 0.1
2017-Jun-14 16:29N 41°53' E 011°31'0 0.5
2017-Jun-14 16:00N 41°53' E 011°31'3 4.5
2017-Jun-14 15:26N 41°55' E 011°33'410.0
2017-Jun-14 15:00N 41°59' E 011°36'0 0.3
2017-Jun-14 13:58N 41°58' E 011°36'0 0.3
2017-Jun-14 13:25N 41°58' E 011°36'0 0.3
2017-Jun-14 13:00N 41°58' E 011°35'0 0.3
2017-Jun-14 12:30N 41°58' E 011°35'0 0.4
2017-Jun-14 11:54N 41°58' E 011°35'0 0.4
2017-Jun-14 11:30N 41°58' E 011°35'0 0.4
2017-Jun-14 10:58N 41°58' E 011°34'0 0.4
2017-Jun-14 10:24N 41°58' E 011°34'0 0.4
2017-Jun-14 09:58N 41°58' E 011°34'0 0.4
2017-Jun-14 09:27N 41°58' E 011°34'0 0.4
2017-Jun-14 08:37N 41°57' E 011°33'0 0.3
2017-Jun-14 08:26N 41°57' E 011°33'0 0.4
2017-Jun-14 07:58N 41°57' E 011°33'0 0.4
2017-Jun-14 07:28N 41°57' E 011°33'0 0.4
2017-Jun-14 06:34N 41°57' E 011°33'0 0.4
2017-Jun-14 06:27N 41°57' E 011°33'0 0.4
2017-Jun-14 05:58N 41°57' E 011°33'0 0.4
2017-Jun-14 05:30N 41°56' E 011°33'0 0.4
2017-Jun-14 04:44N 41°56' E 011°33'0 0.3
2017-Jun-14 04:25N 41°56' E 011°33'0 0.3
2017-Jun-14 03:59N 41°56' E 011°33'0 0.3
2017-Jun-14 03:28N 41°56' E 011°33'0 0.2
2017-Jun-14 02:58N 41°56' E 011°33'0 0.2
2017-Jun-14 02:30N 41°56' E 011°33'1 1.2
2017-Jun-14 02:00N 41°56' E 011°33'5 8.6
2017-Jun-14 01:22N 42°01' E 011°37'512.8
2017-Jun-14 00:59N 42°05' E 011°40'4 0.3
2017-Jun-13 10:30N 42°08' E 011°44'0 0.0
2017-Jun-12 23:48N 42°08' E 011°44'0 0.0
2017-Jun-12 21:09N 42°08' E 011°43'0 0.0
2017-Jun-12 06:18N 42°07' E 011°44'4 0.3
2017-Jun-11 17:23N 42°04' E 011°46'3 7.9
2017-Jun-11 16:59N 42°01' E 011°44'812.6
2017-Jun-11 16:20N 41°55' E 011°37'512.3
2017-Jun-11 15:54N 41°50' E 011°34'512.5
2017-Jun-11 15:30N 41°46' E 011°30'612.3
2017-Jun-11 14:59N 41°40' E 011°27'612.4
2017-Jun-11 14:29N 41°34' E 011°23'1312.9
2017-Jun-11 13:28N 41°23' E 011°15'1012.9
2017-Jun-11 12:39N 41°13' E 011°09'412.7
2017-Jun-11 12:19N 41°09' E 011°06'512.6
2017-Jun-11 11:56N 41°05' E 011°04'612.5
2017-Jun-11 11:26N 40°59' E 010°60'612.4
2017-Jun-11 10:57N 40°54' E 010°56'512.4
2017-Jun-11 10:30N 40°49' E 010°53'612.5
2017-Jun-11 10:00N 40°44' E 010°49'611.8
2017-Jun-11 09:29N 40°38' E 010°45'611.9
2017-Jun-11 09:00N 40°33' E 010°42'612.0
2017-Jun-11 08:29N 40°28' E 010°38'612.0
2017-Jun-11 08:00N 40°22' E 010°35'712.0
2017-Jun-11 07:23N 40°16' E 010°31'512.0
2017-Jun-11 06:59N 40°11' E 010°28'711.9
2017-Jun-11 06:25N 40°05' E 010°24'612.0
2017-Jun-11 05:57N 40°00' E 010°21'612.1
2017-Jun-11 05:27N 39°55' E 010°17'612.1
2017-Jun-11 04:59N 39°50' E 010°14'612.2
2017-Jun-11 04:29N 39°44' E 010°10'812.3
2017-Jun-11 03:52N 39°38' E 010°06'512.4
2017-Jun-11 03:30N 39°34' E 010°03'712.3
2017-Jun-11 02:57N 39°28' E 009°59'612.3
2017-Jun-11 02:26N 39°22' E 009°55'712.3
2017-Jun-11 01:53N 39°16' E 009°51'512.2
2017-Jun-11 01:30N 39°12' E 009°49'712.2
2017-Jun-11 00:56N 39°06' E 009°45'511.6
2017-Jun-11 00:30N 39°02' E 009°40'612.2
2017-Jun-11 00:00N 38°59' E 009°33'811.2
2017-Jun-10 23:16N 39°00' E 009°23'311.8
2017-Jun-10 23:00N 39°01' E 009°19'612.2
2017-Jun-10 22:30N 39°03' E 009°12'611.7
2017-Jun-10 22:00N 39°06' E 009°05'2 3.2
2017-Jun-10 21:29N 39°06' E 009°03'0 0.0
2017-Jun-10 20:59N 39°06' E 009°03'0 0.0
2017-Jun-10 20:29N 39°06' E 009°03'0 0.0
2017-Jun-10 19:59N 39°06' E 009°03'0 0.0
2017-Jun-10 19:29N 39°06' E 009°03'0 0.0
2017-Jun-10 18:59N 39°06' E 009°03'0 0.1
2017-Jun-10 18:29N 39°06' E 009°03'0 0.2
2017-Jun-10 18:00N 39°06' E 009°03'1 1.3
2017-Jun-10 17:30N 39°05' E 009°02'0 0.0
2017-Jun-10 16:57N 39°05' E 009°02'0 0.0
2017-Jun-10 16:30N 39°05' E 009°02'0 0.0
2017-Jun-10 15:57N 39°05' E 009°02'0 0.0
2017-Jun-10 15:30N 39°05' E 009°02'0 0.0
2017-Jun-10 15:00N 39°05' E 009°02'0 0.0
2017-Jun-10 14:00N 39°05' E 009°02'0 0.0
2017-Jun-10 13:30N 39°05' E 009°02'0 0.0
2017-Jun-10 13:00N 39°05' E 009°02'0 0.0
2017-Jun-10 12:27N 39°05' E 009°02'0 0.0
2017-Jun-10 12:00N 39°05' E 009°02'0 0.0
2017-Jun-10 11:27N 39°05' E 009°02'0 0.0
2017-Jun-10 11:00N 39°05' E 009°02'0 0.0
2017-Jun-10 10:30N 39°05' E 009°02'0 0.0
2017-Jun-10 10:00N 39°05' E 009°02'0 0.0
2017-Jun-10 09:30N 39°05' E 009°02'0 0.0
2017-Jun-10 09:00N 39°05' E 009°02'0 0.0
2017-Jun-10 08:30N 39°05' E 009°02'0 0.0
2017-Jun-10 08:00N 39°05' E 009°02'0 0.0
2017-Jun-10 07:30N 39°05' E 009°02'0 0.0
2017-Jun-10 06:57N 39°05' E 009°02'0 0.0
2017-Jun-10 06:30N 39°05' E 009°02'0 0.0
2017-Jun-10 06:00N 39°05' E 009°02'0 0.0
2017-Jun-10 05:30N 39°05' E 009°02'0 0.0
2017-Jun-10 05:00N 39°05' E 009°02'0 0.0
2017-Jun-10 04:30N 39°05' E 009°02'0 0.0
2017-Jun-10 03:57N 39°05' E 009°02'0 0.0
2017-Jun-10 03:27N 39°05' E 009°02'0 0.0
2017-Jun-10 03:00N 39°05' E 009°02'0 0.0
2017-Jun-10 02:27N 39°05' E 009°02'0 0.0
2017-Jun-10 02:00N 39°05' E 009°02'0 0.0
2017-Jun-10 01:30N 39°05' E 009°02'0 0.0
2017-Jun-10 01:00N 39°05' E 009°02'0 0.0
2017-Jun-10 00:27N 39°05' E 009°02'0 0.0
2017-Jun-10 00:00N 39°05' E 009°02'0 0.0
2017-Jun-09 23:30N 39°05' E 009°02'0 0.0
2017-Jun-09 22:54N 39°05' E 009°02'0 0.0
2017-Jun-09 22:30N 39°05' E 009°02'0 0.0
2017-Jun-09 21:57N 39°05' E 009°02'0 0.0
2017-Jun-09 21:30N 39°05' E 009°02'0 0.0
2017-Jun-09 21:00N 39°05' E 009°02'0 0.0
2017-Jun-09 20:30N 39°05' E 009°02'0 0.0
2017-Jun-09 20:00N 39°05' E 009°02'0 0.0
2017-Jun-09 19:30N 39°05' E 009°02'0 0.0
2017-Jun-09 19:00N 39°05' E 009°02'0 0.0
2017-Jun-09 18:30N 39°05' E 009°02'0 0.0
2017-Jun-09 18:00N 39°05' E 009°02'0 0.0
2017-Jun-09 17:30N 39°05' E 009°02'0 0.0
2017-Jun-09 17:00N 39°05' E 009°02'0 0.0
2017-Jun-09 16:30N 39°05' E 009°02'0 0.0
2017-Jun-09 16:00N 39°05' E 009°02'0 0.0
2017-Jun-09 15:30N 39°05' E 009°02'0 0.0
2017-Jun-09 15:00N 39°05' E 009°02'0 0.0
2017-Jun-09 14:30N 39°05' E 009°02'3 2.3
2017-Jun-09 13:26N 39°04' E 009°04'0 0.0
2017-Jun-09 12:56N 39°03' E 009°04'0 0.0
2017-Jun-09 12:29N 39°03' E 009°04'0 0.0
2017-Jun-09 11:59N 39°03' E 009°04'0 0.0
2017-Jun-09 11:29N 39°03' E 009°04'0 0.0
2017-Jun-09 10:59N 39°03' E 009°04'0 0.0
2017-Jun-09 10:29N 39°03' E 009°04'0 0.0
2017-Jun-09 09:56N 39°03' E 009°04'0 0.0
2017-Jun-09 09:29N 39°03' E 009°04'0 0.0
2017-Jun-09 08:59N 39°03' E 009°04'0 0.0
2017-Jun-09 08:29N 39°03' E 009°04'0 0.0
2017-Jun-09 07:59N 39°03' E 009°05'0 0.0
2017-Jun-09 07:14N 39°03' E 009°05'0 0.0
2017-Jun-09 06:59N 39°03' E 009°05'0 0.0
2017-Jun-09 06:29N 39°03' E 009°05'0 0.0
2017-Jun-09 05:59N 39°03' E 009°05'0 0.0
2017-Jun-09 05:29N 39°03' E 009°05'0 0.0
2017-Jun-09 04:56N 39°03' E 009°05'0 0.0
2017-Jun-09 04:29N 39°03' E 009°05'0 0.0
2017-Jun-09 03:59N 39°03' E 009°05'0 0.0
2017-Jun-09 03:29N 39°03' E 009°05'0 0.0
2017-Jun-09 02:59N 39°03' E 009°05'0 0.0
2017-Jun-09 02:26N 39°03' E 009°05'0 0.0
2017-Jun-09 01:59N 39°03' E 009°05'0 0.0
2017-Jun-09 01:29N 39°03' E 009°05'0 0.0
2017-Jun-09 00:59N 39°03' E 009°05'0 0.0
2017-Jun-09 00:29N 39°03' E 009°05'0 0.0
2017-Jun-08 23:56N 39°03' E 009°05'0 0.0
2017-Jun-08 23:29N 39°03' E 009°05'0 0.1
2017-Jun-08 22:56N 39°03' E 009°05'0 0.7
2017-Jun-08 22:30N 39°03' E 009°05'510.0
2017-Jun-08 22:00N 38°58' E 009°05'612.9
2017-Jun-08 21:30N 38°53' E 009°00'713.4
2017-Jun-08 20:58N 38°48' E 008°54'612.7
2017-Jun-08 20:30N 38°48' E 008°46'1111.7
2017-Jun-08 19:36N 38°50' E 008°33'112.9
2017-Jun-08 19:29N 38°51' E 008°31'612.4
2017-Jun-08 19:00N 38°57' E 008°31'3 0.7
2017-Jun-08 14:57N 38°59' E 008°31'0 0.1
2017-Jun-08 14:30N 38°59' E 008°31'0 0.0
2017-Jun-08 13:30N 38°59' E 008°31'0 0.1
2017-Jun-08 13:00N 38°59' E 008°31'0 0.0
2017-Jun-08 12:30N 38°59' E 008°31'0 0.0
2017-Jun-08 08:30N 38°59' E 008°31'0 0.0
2017-Jun-08 08:00N 38°59' E 008°31'0 0.0
2017-Jun-08 06:00N 38°59' E 008°31'0 0.0
2017-Jun-08 05:12N 38°59' E 008°31'0 0.0
2017-Jun-08 05:00N 38°59' E 008°31'0 0.0
2017-Jun-08 04:30N 38°59' E 008°31'0 0.0
2017-Jun-08 04:00N 38°59' E 008°31'0 0.0
2017-Jun-08 03:18N 38°59' E 008°31'0 0.0
2017-Jun-08 02:45N 38°59' E 008°31'0 0.0
2017-Jun-08 02:30N 38°59' E 008°31'0 0.0
2017-Jun-08 01:18N 38°59' E 008°31'0 0.1
2017-Jun-08 00:54N 38°59' E 008°31'0 0.0
2017-Jun-08 00:27N 38°59' E 008°31'0 0.0
2017-Jun-07 17:39N 38°59' E 008°31'  
Track history (hours):
 
Tides and Currents Weather Stations Pressure Air Temp Water Temp Dewpoint Dewpoint Depression Visibility Wind Speed Wind Dir Waves Ship Positions

Valtellina

Last reported at 2017-Jun-17 14:51 UTC. Time now 2017-Jun-22 18:40 UTC.
Position N 37°48' E 015°28'.

Length 184 m; draft 7.5 m.

Type: Ship. MMSI: 247243900.

Date/timePositionNaut miles runAvg speedWind from/ knotsBaromVisibWave heightAir tempDewpointWater temp
2017-Jun-17 14:51N 37°48' E 015°28'813.3
2017-Jun-17 14:13N 37°56' E 015°30'913.0
2017-Jun-17 13:31N 38°05' E 015°33'612.9
2017-Jun-17 13:00N 38°11' E 015°35'712.1
2017-Jun-17 12:25N 38°17' E 015°40'512.6
2017-Jun-17 12:00N 38°21' E 015°37'713.2
2017-Jun-17 11:30N 38°26' E 015°31'713.3
2017-Jun-17 11:00N 38°31' E 015°25'713.2
2017-Jun-17 10:29N 38°36' E 015°19'613.0
2017-Jun-17 10:00N 38°40' E 015°13'712.9
2017-Jun-17 09:29N 38°45' E 015°08'7912.8
2017-Jun-17 03:22N 39°44' E 013°60'512.9
2017-Jun-17 03:00N 39°47' E 013°56'612.9
2017-Jun-17 02:30N 39°52' E 013°50'612.7
2017-Jun-17 02:01N 39°57' E 013°44'612.6
2017-Jun-17 01:30N 40°01' E 013°38'612.5
2017-Jun-17 01:00N 40°06' E 013°33'612.5
2017-Jun-17 00:30N 40°10' E 013°27'612.7
2017-Jun-17 00:00N 40°15' E 013°22'612.8
2017-Jun-16 23:31N 40°20' E 013°16'612.8
2017-Jun-16 23:00N 40°25' E 013°11'612.7
2017-Jun-16 22:30N 40°30' E 013°05'1213.0
2017-Jun-16 21:36N 40°38' E 012°55'212.8
2017-Jun-16 21:28N 40°40' E 012°54'712.6
2017-Jun-16 20:57N 40°45' E 012°48'713.0
2017-Jun-16 20:25N 40°50' E 012°42'513.1
2017-Jun-16 20:00N 40°54' E 012°37'713.2
2017-Jun-16 19:30N 40°59' E 012°32'713.2
2017-Jun-16 19:00N 41°04' E 012°26'713.2
2017-Jun-16 18:30N 41°09' E 012°20'2713.1
2017-Jun-16 16:25N 41°30' E 011°57'513.0
2017-Jun-16 16:00N 41°34' E 011°52'1612.8
2017-Jun-16 14:44N 41°46' E 011°38'312.4
2017-Jun-16 14:28N 41°49' E 011°35'5 1.3
2017-Jun-16 11:01N 41°52' E 011°31'0 0.4
2017-Jun-16 11:00N 41°52' E 011°31'0 0.1
2017-Jun-16 07:13N 41°52' E 011°31'0 0.1
2017-Jun-16 06:36N 41°52' E 011°31'0 0.1
2017-Jun-16 06:30N 41°52' E 011°31'0 0.1
2017-Jun-16 05:51N 41°52' E 011°31'0 0.1
2017-Jun-16 05:22N 41°52' E 011°31'0 0.1
2017-Jun-16 04:54N 41°52' E 011°31'0 0.1
2017-Jun-16 04:27N 41°52' E 011°31'0 0.0
2017-Jun-16 03:58N 41°52' E 011°31'0 0.1
2017-Jun-16 03:25N 41°52' E 011°31'0 0.1
2017-Jun-16 03:01N 41°52' E 011°31'0 0.2
2017-Jun-16 02:28N 41°52' E 011°31'0 0.2
2017-Jun-16 01:56N 41°52' E 011°31'0 0.1
2017-Jun-16 01:28N 41°52' E 011°31'0 0.1
2017-Jun-16 01:00N 41°52' E 011°31'0 0.1
2017-Jun-16 00:25N 41°52' E 011°31'0 0.1
2017-Jun-16 00:01N 41°52' E 011°31'0 0.2
2017-Jun-15 23:29N 41°52' E 011°31'0 0.2
2017-Jun-15 23:00N 41°52' E 011°31'0 0.2
2017-Jun-15 22:28N 41°53' E 011°31'0 0.2
2017-Jun-15 21:58N 41°53' E 011°31'0 0.1
2017-Jun-15 21:30N 41°53' E 011°31'0 0.2
2017-Jun-15 20:58N 41°53' E 011°31'0 0.2
2017-Jun-15 20:31N 41°53' E 011°31'0 0.4
2017-Jun-15 19:59N 41°53' E 011°31'1 1.5
2017-Jun-15 19:30N 41°54' E 011°31'4 8.2
2017-Jun-15 19:00N 41°57' E 011°34'2 3.6
2017-Jun-15 18:28N 41°59' E 011°35'0 0.5
2017-Jun-15 17:57N 41°59' E 011°35'0 0.6
2017-Jun-15 17:21N 41°59' E 011°34'0 0.6
2017-Jun-15 16:58N 41°59' E 011°34'0 0.6
2017-Jun-15 16:28N 41°59' E 011°34'0 0.6
2017-Jun-15 15:57N 41°59' E 011°33'0 0.6
2017-Jun-15 15:27N 41°58' E 011°33'0 0.6
2017-Jun-15 15:00N 41°58' E 011°33'0 0.6
2017-Jun-15 14:25N 41°58' E 011°32'0 0.5
2017-Jun-15 13:30N 41°58' E 011°32'1 0.4
2017-Jun-15 12:20N 41°57' E 011°32'0 0.4
2017-Jun-15 11:55N 41°57' E 011°32'0 0.3
2017-Jun-15 11:31N 41°57' E 011°32'0 0.3
2017-Jun-15 10:58N 41°57' E 011°32'0 0.2
2017-Jun-15 10:24N 41°57' E 011°32'0 0.2
2017-Jun-15 10:00N 41°56' E 011°32'0 0.2
2017-Jun-15 09:22N 41°56' E 011°32'0 0.3
2017-Jun-15 08:59N 41°56' E 011°32'0 0.3
2017-Jun-15 08:28N 41°56' E 011°32'0 0.2
2017-Jun-15 08:00N 41°56' E 011°32'0 0.2
2017-Jun-15 07:20N 41°56' E 011°32'0 0.2
2017-Jun-15 06:59N 41°56' E 011°32'0 0.2
2017-Jun-15 06:28N 41°56' E 011°32'0 0.2
2017-Jun-15 06:01N 41°56' E 011°32'0 0.2
2017-Jun-15 05:29N 41°56' E 011°32'0 0.2
2017-Jun-15 05:01N 41°56' E 011°32'0 0.2
2017-Jun-15 04:29N 41°56' E 011°32'0 0.3
2017-Jun-15 03:58N 41°56' E 011°32'0 0.3
2017-Jun-15 03:29N 41°55' E 011°32'0 0.3
2017-Jun-15 02:56N 41°55' E 011°31'0 0.3
2017-Jun-15 02:30N 41°55' E 011°31'0 0.3
2017-Jun-15 02:00N 41°55' E 011°31'0 0.3
2017-Jun-15 01:28N 41°55' E 011°31'0 0.4
2017-Jun-15 01:00N 41°55' E 011°31'0 0.4
2017-Jun-15 00:30N 41°55' E 011°31'0 0.3
2017-Jun-15 00:00N 41°55' E 011°31'0 0.3
2017-Jun-14 23:30N 41°54' E 011°31'0 0.3
2017-Jun-14 23:00N 41°54' E 011°31'0 0.2
2017-Jun-14 22:30N 41°54' E 011°31'0 0.3
2017-Jun-14 22:00N 41°54' E 011°31'0 0.3
2017-Jun-14 21:31N 41°54' E 011°31'0 0.3
2017-Jun-14 21:00N 41°54' E 011°31'0 0.3
2017-Jun-14 20:30N 41°54' E 011°31'0 0.3
2017-Jun-14 20:01N 41°53' E 011°31'0 0.3
2017-Jun-14 19:30N 41°53' E 011°31'0 0.3
2017-Jun-14 19:00N 41°53' E 011°31'0 0.3
2017-Jun-14 18:30N 41°53' E 011°31'0 0.3
2017-Jun-14 18:00N 41°53' E 011°31'0 0.3
2017-Jun-14 17:30N 41°53' E 011°31'0 0.2
2017-Jun-14 17:00N 41°53' E 011°31'0 0.1
2017-Jun-14 16:29N 41°53' E 011°31'0 0.5
2017-Jun-14 16:00N 41°53' E 011°31'3 4.5
2017-Jun-14 15:26N 41°55' E 011°33'410.0
2017-Jun-14 15:00N 41°59' E 011°36'0 0.3
2017-Jun-14 13:58N 41°58' E 011°36'0 0.3
2017-Jun-14 13:25N 41°58' E 011°36'0 0.3
2017-Jun-14 13:00N 41°58' E 011°35'0 0.3
2017-Jun-14 12:30N 41°58' E 011°35'0 0.4
2017-Jun-14 11:54N 41°58' E 011°35'0 0.4
2017-Jun-14 11:30N 41°58' E 011°35'0 0.4
2017-Jun-14 10:58N 41°58' E 011°34'0 0.4
2017-Jun-14 10:24N 41°58' E 011°34'0 0.4
2017-Jun-14 09:58N 41°58' E 011°34'0 0.4
2017-Jun-14 09:27N 41°58' E 011°34'0 0.4
2017-Jun-14 08:37N 41°57' E 011°33'0 0.3
2017-Jun-14 08:26N 41°57' E 011°33'0 0.4
2017-Jun-14 07:58N 41°57' E 011°33'0 0.4
2017-Jun-14 07:28N 41°57' E 011°33'0 0.4
2017-Jun-14 06:34N 41°57' E 011°33'0 0.4
2017-Jun-14 06:27N 41°57' E 011°33'0 0.4
2017-Jun-14 05:58N 41°57' E 011°33'0 0.4
2017-Jun-14 05:30N 41°56' E 011°33'0 0.4
2017-Jun-14 04:44N 41°56' E 011°33'0 0.3
2017-Jun-14 04:25N 41°56' E 011°33'0 0.3
2017-Jun-14 03:59N 41°56' E 011°33'0 0.3
2017-Jun-14 03:28N 41°56' E 011°33'0 0.2
2017-Jun-14 02:58N 41°56' E 011°33'0 0.2
2017-Jun-14 02:30N 41°56' E 011°33'1 1.2
2017-Jun-14 02:00N 41°56' E 011°33'5 8.6
2017-Jun-14 01:22N 42°01' E 011°37'512.8
2017-Jun-14 00:59N 42°05' E 011°40'4 0.3
2017-Jun-13 10:30N 42°08' E 011°44'0 0.0
2017-Jun-12 23:48N 42°08' E 011°44'0 0.0
2017-Jun-12 21:09N 42°08' E 011°43'0 0.0
2017-Jun-12 06:18N 42°07' E 011°44'4 0.3
2017-Jun-11 17:23N 42°04' E 011°46'3 7.9
2017-Jun-11 16:59N 42°01' E 011°44'812.6
2017-Jun-11 16:20N 41°55' E 011°37'512.3
2017-Jun-11 15:54N 41°50' E 011°34'512.5
2017-Jun-11 15:30N 41°46' E 011°30'612.3
2017-Jun-11 14:59N 41°40' E 011°27'612.4
2017-Jun-11 14:29N 41°34' E 011°23'1312.9
2017-Jun-11 13:28N 41°23' E 011°15'1012.9
2017-Jun-11 12:39N 41°13' E 011°09'412.7
2017-Jun-11 12:19N 41°09' E 011°06'512.6
2017-Jun-11 11:56N 41°05' E 011°04'612.5
2017-Jun-11 11:26N 40°59' E 010°60'612.4
2017-Jun-11 10:57N 40°54' E 010°56'512.4
2017-Jun-11 10:30N 40°49' E 010°53'612.5
2017-Jun-11 10:00N 40°44' E 010°49'611.8
2017-Jun-11 09:29N 40°38' E 010°45'611.9
2017-Jun-11 09:00N 40°33' E 010°42'612.0
2017-Jun-11 08:29N 40°28' E 010°38'612.0
2017-Jun-11 08:00N 40°22' E 010°35'712.0
2017-Jun-11 07:23N 40°16' E 010°31'512.0
2017-Jun-11 06:59N 40°11' E 010°28'711.9
2017-Jun-11 06:25N 40°05' E 010°24'612.0
2017-Jun-11 05:57N 40°00' E 010°21'612.1
2017-Jun-11 05:27N 39°55' E 010°17'612.1
2017-Jun-11 04:59N 39°50' E 010°14'612.2
2017-Jun-11 04:29N 39°44' E 010°10'812.3
2017-Jun-11 03:52N 39°38' E 010°06'512.4
2017-Jun-11 03:30N 39°34' E 010°03'712.3
2017-Jun-11 02:57N 39°28' E 009°59'612.3
2017-Jun-11 02:26N 39°22' E 009°55'712.3
2017-Jun-11 01:53N 39°16' E 009°51'512.2
2017-Jun-11 01:30N 39°12' E 009°49'712.2
2017-Jun-11 00:56N 39°06' E 009°45'511.6
2017-Jun-11 00:30N 39°02' E 009°40'612.2
2017-Jun-11 00:00N 38°59' E 009°33'811.2
2017-Jun-10 23:16N 39°00' E 009°23'311.8
2017-Jun-10 23:00N 39°01' E 009°19'612.2
2017-Jun-10 22:30N 39°03' E 009°12'611.7
2017-Jun-10 22:00N 39°06' E 009°05'2 3.2
2017-Jun-10 21:29N 39°06' E 009°03'0 0.0
2017-Jun-10 20:59N 39°06' E 009°03'0 0.0
2017-Jun-10 20:29N 39°06' E 009°03'0 0.0
2017-Jun-10 19:59N 39°06' E 009°03'0 0.0
2017-Jun-10 19:29N 39°06' E 009°03'0 0.0
2017-Jun-10 18:59N 39°06' E 009°03'0 0.1
2017-Jun-10 18:29N 39°06' E 009°03'0 0.2
2017-Jun-10 18:00N 39°06' E 009°03'1 1.3
2017-Jun-10 17:30N 39°05' E 009°02'0 0.0
2017-Jun-10 16:57N 39°05' E 009°02'0 0.0
2017-Jun-10 16:30N 39°05' E 009°02'0 0.0
2017-Jun-10 15:57N 39°05' E 009°02'0 0.0
2017-Jun-10 15:30N 39°05' E 009°02'0 0.0
2017-Jun-10 15:00N 39°05' E 009°02'0 0.0
2017-Jun-10 14:00N 39°05' E 009°02'0 0.0
2017-Jun-10 13:30N 39°05' E 009°02'0 0.0
2017-Jun-10 13:00N 39°05' E 009°02'0 0.0
2017-Jun-10 12:27N 39°05' E 009°02'0 0.0
2017-Jun-10 12:00N 39°05' E 009°02'0 0.0
2017-Jun-10 11:27N 39°05' E 009°02'0 0.0
2017-Jun-10 11:00N 39°05' E 009°02'0 0.0
2017-Jun-10 10:30N 39°05' E 009°02'0 0.0
2017-Jun-10 10:00N 39°05' E 009°02'0 0.0
2017-Jun-10 09:30N 39°05' E 009°02'0 0.0
2017-Jun-10 09:00N 39°05' E 009°02'0 0.0
2017-Jun-10 08:30N 39°05' E 009°02'0 0.0
2017-Jun-10 08:00N 39°05' E 009°02'0 0.0
2017-Jun-10 07:30N 39°05' E 009°02'0 0.0
2017-Jun-10 06:57N 39°05' E 009°02'0 0.0
2017-Jun-10 06:30N 39°05' E 009°02'0 0.0
2017-Jun-10 06:00N 39°05' E 009°02'0 0.0
2017-Jun-10 05:30N 39°05' E 009°02'0 0.0
2017-Jun-10 05:00N 39°05' E 009°02'0 0.0
2017-Jun-10 04:30N 39°05' E 009°02'0 0.0
2017-Jun-10 03:57N 39°05' E 009°02'0 0.0
2017-Jun-10 03:27N 39°05' E 009°02'0 0.0
2017-Jun-10 03:00N 39°05' E 009°02'0 0.0
2017-Jun-10 02:27N 39°05' E 009°02'0 0.0
2017-Jun-10 02:00N 39°05' E 009°02'0 0.0
2017-Jun-10 01:30N 39°05' E 009°02'0 0.0
2017-Jun-10 01:00N 39°05' E 009°02'0 0.0
2017-Jun-10 00:27N 39°05' E 009°02'0 0.0
2017-Jun-10 00:00N 39°05' E 009°02'0 0.0
2017-Jun-09 23:30N 39°05' E 009°02'0 0.0
2017-Jun-09 22:54N 39°05' E 009°02'0 0.0
2017-Jun-09 22:30N 39°05' E 009°02'0 0.0
2017-Jun-09 21:57N 39°05' E 009°02'0 0.0
2017-Jun-09 21:30N 39°05' E 009°02'0 0.0
2017-Jun-09 21:00N 39°05' E 009°02'0 0.0
2017-Jun-09 20:30N 39°05' E 009°02'0 0.0
2017-Jun-09 20:00N 39°05' E 009°02'0 0.0
2017-Jun-09 19:30N 39°05' E 009°02'0 0.0
2017-Jun-09 19:00N 39°05' E 009°02'0 0.0
2017-Jun-09 18:30N 39°05' E 009°02'0 0.0
2017-Jun-09 18:00N 39°05' E 009°02'0 0.0
2017-Jun-09 17:30N 39°05' E 009°02'0 0.0
2017-Jun-09 17:00N 39°05' E 009°02'0 0.0
2017-Jun-09 16:30N 39°05' E 009°02'0 0.0
2017-Jun-09 16:00N 39°05' E 009°02'0 0.0
2017-Jun-09 15:30N 39°05' E 009°02'0 0.0
2017-Jun-09 15:00N 39°05' E 009°02'0 0.0
2017-Jun-09 14:30N 39°05' E 009°02'3 2.3
2017-Jun-09 13:26N 39°04' E 009°04'0 0.0
2017-Jun-09 12:56N 39°03' E 009°04'0 0.0
2017-Jun-09 12:29N 39°03' E 009°04'0 0.0
2017-Jun-09 11:59N 39°03' E 009°04'0 0.0
2017-Jun-09 11:29N 39°03' E 009°04'0 0.0
2017-Jun-09 10:59N 39°03' E 009°04'0 0.0
2017-Jun-09 10:29N 39°03' E 009°04'0 0.0
2017-Jun-09 09:56N 39°03' E 009°04'0 0.0
2017-Jun-09 09:29N 39°03' E 009°04'0 0.0
2017-Jun-09 08:59N 39°03' E 009°04'0 0.0
2017-Jun-09 08:29N 39°03' E 009°04'0 0.0
2017-Jun-09 07:59N 39°03' E 009°05'0 0.0
2017-Jun-09 07:14N 39°03' E 009°05'0 0.0
2017-Jun-09 06:59N 39°03' E 009°05'0 0.0
2017-Jun-09 06:29N 39°03' E 009°05'0 0.0
2017-Jun-09 05:59N 39°03' E 009°05'0 0.0
2017-Jun-09 05:29N 39°03' E 009°05'0 0.0
2017-Jun-09 04:56N 39°03' E 009°05'0 0.0
2017-Jun-09 04:29N 39°03' E 009°05'0 0.0
2017-Jun-09 03:59N 39°03' E 009°05'0 0.0
2017-Jun-09 03:29N 39°03' E 009°05'0 0.0
2017-Jun-09 02:59N 39°03' E 009°05'0 0.0
2017-Jun-09 02:26N 39°03' E 009°05'0 0.0
2017-Jun-09 01:59N 39°03' E 009°05'0 0.0
2017-Jun-09 01:29N 39°03' E 009°05'0 0.0
2017-Jun-09 00:59N 39°03' E 009°05'0 0.0
2017-Jun-09 00:29N 39°03' E 009°05'0 0.0
2017-Jun-08 23:56N 39°03' E 009°05'0 0.0
2017-Jun-08 23:29N 39°03' E 009°05'0 0.1
2017-Jun-08 22:56N 39°03' E 009°05'0 0.7
2017-Jun-08 22:30N 39°03' E 009°05'510.0
2017-Jun-08 22:00N 38°58' E 009°05'612.9
2017-Jun-08 21:30N 38°53' E 009°00'713.4
2017-Jun-08 20:58N 38°48' E 008°54'612.7
2017-Jun-08 20:30N 38°48' E 008°46'1111.7
2017-Jun-08 19:36N 38°50' E 008°33'112.9
2017-Jun-08 19:29N 38°51' E 008°31'612.4
2017-Jun-08 19:00N 38°57' E 008°31'3 0.7
2017-Jun-08 14:57N 38°59' E 008°31'0 0.1
2017-Jun-08 14:30N 38°59' E 008°31'0 0.0
2017-Jun-08 13:30N 38°59' E 008°31'0 0.1
2017-Jun-08 13:00N 38°59' E 008°31'0 0.0
2017-Jun-08 12:30N 38°59' E 008°31'0 0.0
2017-Jun-08 08:30N 38°59' E 008°31'0 0.0
2017-Jun-08 08:00N 38°59' E 008°31'0 0.0
2017-Jun-08 06:00N 38°59' E 008°31'0 0.0
2017-Jun-08 05:12N 38°59' E 008°31'0 0.0
2017-Jun-08 05:00N 38°59' E 008°31'0 0.0
2017-Jun-08 04:30N 38°59' E 008°31'0 0.0
2017-Jun-08 04:00N 38°59' E 008°31'0 0.0
2017-Jun-08 03:18N 38°59' E 008°31'0 0.0
2017-Jun-08 02:45N 38°59' E 008°31'0 0.0
2017-Jun-08 02:30N 38°59' E 008°31'0 0.0
2017-Jun-08 01:18N 38°59' E 008°31'0 0.1
2017-Jun-08 00:54N 38°59' E 008°31'0 0.0
2017-Jun-08 00:27N 38°59' E 008°31'0 0.0
2017-Jun-07 17:39N 38°59' E 008°31'  

Dump ship's entire track history